Time;durP1;ratioP1;P1;durP2;ratioP2;P2;SDS_P1;SDS_P2;PMS_P1;PMS_P2;Temp;Humidity;BMP_temperature;BMP_pressure;BME280_temperature;BME280_humidity;BME280_pressure;Samples;Min_cycle;Max_cycle;Signal;HPM_P1;HPM_P2
2021/08/09 00:00:45;;;;;;;13.40;9.70;;;;;;;23.50;100.00;99958.86;1612973;88;21153;-64
2021/08/09 00:03:12;;;;;;;16.03;10.20;;;;;;;23.51;100.00;99959.66;1613785;87;21017;-64
2021/08/09 00:05:41;;;;;;;16.30;11.07;;;;;;;23.53;100.00;99958.31;1619687;87;21067;-62
2021/08/09 00:08:10;;;;;;;15.13;10.90;;;;;;;23.45;100.00;99955.42;1627771;88;21045;-64
2021/08/09 00:10:38;;;;;;;17.53;12.03;;;;;;;23.43;100.00;99958.91;1629034;88;21113;-64
2021/08/09 00:13:06;;;;;;;16.47;11.13;;;;;;;23.42;100.00;99958.66;1641532;86;21606;-64
2021/08/09 00:15:34;;;;;;;12.13;9.93;;;;;;;23.40;100.00;99953.59;1646649;86;21579;-62
2021/08/09 00:18:03;;;;;;;14.93;11.63;;;;;;;23.34;100.00;99956.04;1646088;87;20915;-62
2021/08/09 00:20:30;;;;;;;14.87;12.13;;;;;;;23.28;100.00;99957.13;1644428;87;21570;-63
2021/08/09 00:22:58;;;;;;;12.40;10.20;;;;;;;23.24;100.00;99952.89;1617485;87;20942;-65
2021/08/09 00:25:26;;;;;;;12.60;9.77;;;;;;;23.17;100.00;99951.60;1616890;87;21089;-64
2021/08/09 00:27:54;;;;;;;13.97;10.97;;;;;;;23.11;100.00;99946.86;1615872;87;21091;-63
2021/08/09 00:30:22;;;;;;;15.33;11.80;;;;;;;23.06;100.00;99944.20;1616866;88;21112;-64
2021/08/09 00:32:50;;;;;;;15.17;11.83;;;;;;;23.01;100.00;99940.25;1617271;87;21075;-64
2021/08/09 00:35:19;;;;;;;16.83;11.30;;;;;;;22.96;100.00;99934.97;1617492;88;21081;-64
2021/08/09 00:37:48;;;;;;;16.67;12.70;;;;;;;22.93;100.00;99940.28;1616797;88;21087;-64
2021/08/09 00:40:14;;;;;;;12.97;11.43;;;;;;;22.90;100.00;99937.34;1616684;87;21000;-62
2021/08/09 00:42:43;;;;;;;14.77;10.53;;;;;;;22.88;100.00;99940.28;1609922;87;20923;-64
2021/08/09 00:45:12;;;;;;;16.63;11.50;;;;;;;22.83;100.00;99939.75;1616720;87;21048;-64
2021/08/09 00:47:39;;;;;;;14.93;11.33;;;;;;;22.87;100.00;99933.36;1617196;88;21020;-63
2021/08/09 00:50:08;;;;;;;14.20;11.00;;;;;;;22.87;100.00;99940.00;1617388;88;21167;-61
2021/08/09 00:52:35;;;;;;;15.80;11.37;;;;;;;22.80;100.00;99932.84;1617018;87;22057;-64
2021/08/09 00:55:03;;;;;;;13.80;10.60;;;;;;;22.78;100.00;99927.03;1617503;88;21025;-64
2021/08/09 00:57:31;;;;;;;17.27;10.03;;;;;;;22.81;100.00;99923.30;1637050;87;21066;-62
2021/08/09 00:59:58;;;;;;;14.27;10.23;;;;;;;22.76;100.00;99925.95;1646134;87;20982;-62
2021/08/09 01:02:25;;;;;;;16.03;11.20;;;;;;;22.71;100.00;99930.50;1636210;87;21130;-64
2021/08/09 01:04:52;;;;;;;12.07;10.77;;;;;;;22.71;100.00;99935.81;1605329;88;21029;-64
2021/08/09 01:07:21;;;;;;;14.47;10.63;;;;;;;22.72;100.00;99930.76;1607659;87;20978;-64
2021/08/09 01:09:52;;;;;;;14.47;10.50;;;;;;;22.68;100.00;99929.17;1612321;88;20990;-62
2021/08/09 01:12:26;;;;;;;13.93;10.57;;;;;;;22.61;100.00;99926.00;1611948;87;21011;-61
2021/08/09 01:15:07;;;;;;;14.83;11.83;;;;;;;22.51;100.00;99928.17;1634290;87;22157;-63
2021/08/09 01:17:40;;;;;;;13.73;11.90;;;;;;;22.45;100.00;99928.45;1606363;88;21071;-64
2021/08/09 01:20:33;;;;;;;13.13;11.33;;;;;;;22.37;100.00;99928.47;1612040;88;20933;-63
2021/08/09 01:23:37;;;;;;;14.10;12.17;;;;;;;22.25;100.00;99934.60;1598978;88;21026;-62
2021/08/09 01:26:12;;;;;;;15.00;12.10;;;;;;;22.19;100.00;99929.81;1611726;87;21074;-63
2021/08/09 01:28:39;;;;;;;13.13;11.10;;;;;;;22.11;100.00;99933.78;1613268;88;21222;-62
2021/08/09 01:31:06;;;;;;;14.97;12.37;;;;;;;22.09;100.00;99933.27;1588813;88;21057;-63
2021/08/09 01:33:35;;;;;;;15.33;13.40;;;;;;;22.05;100.00;99936.19;1612344;88;21100;-63
2021/08/09 01:36:03;;;;;;;13.83;12.27;;;;;;;22.04;100.00;99933.78;1607967;88;20987;-62
2021/08/09 01:38:30;;;;;;;17.20;12.60;;;;;;;22.06;100.00;99932.47;1606415;87;21571;-61
2021/08/09 01:40:58;;;;;;;11.93;10.67;;;;;;;22.03;100.00;99930.34;1574633;88;21191;-59
2021/08/09 01:43:26;;;;;;;15.87;12.03;;;;;;;22.00;100.00;99928.21;1611215;87;21090;-61
2021/08/09 01:45:55;;;;;;;14.43;12.50;;;;;;;21.93;100.00;99929.55;1612834;87;21148;-60
2021/08/09 01:48:22;;;;;;;15.70;12.70;;;;;;;21.84;100.00;99925.30;1612551;88;21598;-61
2021/08/09 01:50:49;;;;;;;15.30;13.67;;;;;;;21.83;100.00;99932.47;1612071;88;21625;-61
2021/08/09 01:53:16;;;;;;;16.13;13.40;;;;;;;21.86;100.00;99931.16;1612399;88;21103;-61
2021/08/09 01:55:42;;;;;;;15.17;13.53;;;;;;;21.84;100.00;99931.94;1612020;88;21076;-60
2021/08/09 01:58:10;;;;;;;14.70;12.73;;;;;;;21.81;100.00;99932.46;1564722;91;21096;-61
2021/08/09 02:00:38;;;;;;;15.53;12.80;;;;;;;21.74;100.00;99935.91;1563623;91;21656;-61
2021/08/09 02:03:05;;;;;;;18.20;14.30;;;;;;;21.76;100.00;99935.92;1563895;91;21063;-61
2021/08/09 02:05:32;;;;;;;16.73;13.13;;;;;;;21.76;100.00;99941.22;1587175;89;21175;-62
2021/08/09 02:08:01;;;;;;;15.57;12.63;;;;;;;21.72;100.00;99934.06;1638047;87;20986;-62
2021/08/09 02:10:29;;;;;;;15.63;12.80;;;;;;;21.67;100.00;99935.37;1645832;87;21029;-60
2021/08/09 02:13:14;;;;;;;17.40;13.97;;;;;;;21.62;100.00;99929.00;1646479;87;21048;-61
2021/08/09 02:16:14;;;;;;;15.20;13.70;;;;;;;21.58;100.00;99923.95;1646763;87;21033;-62
2021/08/09 02:19:03;;;;;;;17.00;14.30;;;;;;;21.55;100.00;99928.45;1645360;87;21147;-62
2021/08/09 02:21:33;;;;;;;14.20;12.47;;;;;;;21.45;100.00;99933.77;1633399;87;20984;-62
2021/08/09 02:24:06;;;;;;;15.90;12.53;;;;;;;21.42;100.00;99930.84;1619259;87;21096;-62
2021/08/09 02:26:36;;;;;;;16.80;13.40;;;;;;;21.37;100.00;99931.10;1637822;87;21098;-62
2021/08/09 02:29:10;;;;;;;16.60;13.95;;;;;;;21.39;100.00;99934.80;1645741;86;21594;-64
2021/08/09 02:31:39;;;;;;;17.53;13.73;;;;;;;21.41;100.00;99932.70;1634798;86;21121;-62
2021/08/09 02:34:06;;;;;;;15.43;12.37;;;;;;;21.40;100.00;99934.27;1620385;87;21009;-60
2021/08/09 02:36:32;;;;;;;15.40;11.03;;;;;;;21.47;100.00;99930.30;1618762;87;21624;-60
2021/08/09 02:38:59;;;;;;;16.63;10.20;;;;;;;21.58;100.00;99928.47;1619674;87;21060;-62
2021/08/09 02:41:26;;;;;;;17.03;11.87;;;;;;;21.75;100.00;99925.58;1620100;88;21084;-61
2021/08/09 02:43:53;;;;;;;16.60;12.17;;;;;;;21.90;100.00;99929.56;1617604;87;21194;-62
2021/08/09 02:46:19;;;;;;;16.80;12.87;;;;;;;22.03;100.00;99930.34;1635642;86;21149;-60
2021/08/09 02:48:49;;;;;;;19.40;12.50;;;;;;;22.13;100.00;99933.53;1631979;87;21078;-61
2021/08/09 02:51:20;;;;;;;14.20;12.07;;;;;;;22.09;100.00;99929.28;1621128;87;21878;-62
2021/08/09 02:53:49;;;;;;;15.77;13.10;;;;;;;22.09;100.00;99931.94;1620712;87;20992;-62
2021/08/09 02:56:17;;;;;;;18.07;13.53;;;;;;;22.09;100.00;99933.27;1619836;87;22111;-60
2021/08/09 02:58:45;;;;;;;14.97;12.57;;;;;;;22.15;100.00;99927.97;1620297;87;21129;-62
2021/08/09 03:01:13;;;;;;;14.17;12.67;;;;;;;22.25;100.00;99935.93;1679976;81;21053;-62
2021/08/09 03:03:40;;;;;;;12.47;11.17;;;;;;;22.23;100.00;99931.41;1704350;81;21073;-61
2021/08/09 03:06:08;;;;;;;17.73;12.93;;;;;;;22.30;100.00;99927.41;1756589;81;21240;-60
2021/08/09 03:08:35;;;;;;;14.63;13.13;;;;;;;22.30;100.00;99928.73;1756174;81;21610;-62
2021/08/09 03:11:02;;;;;;;15.43;13.43;;;;;;;22.34;100.00;99933.77;1725954;81;20979;-62
2021/08/09 03:13:29;;;;;;;15.20;12.97;;;;;;;22.40;100.00;99934.58;1739015;80;21033;-62
2021/08/09 03:15:55;;;;;;;14.97;12.40;;;;;;;22.52;100.00;99934.28;1742107;80;20994;-62
2021/08/09 03:18:22;;;;;;;16.67;12.80;;;;;;;22.69;100.00;99943.25;1755885;81;21058;-60
2021/08/09 03:20:49;;;;;;;18.27;13.47;;;;;;;22.82;100.00;99947.47;1755872;80;21054;-61
2021/08/09 03:23:16;;;;;;;14.83;12.80;;;;;;;22.96;100.00;99950.38;1747533;80;21030;-62
2021/08/09 03:25:44;;;;;;;14.47;12.97;;;;;;;23.12;100.00;99941.00;1749504;80;20998;-63
2021/08/09 03:28:12;;;;;;;17.33;12.37;;;;;;;23.35;100.00;99942.99;1738584;81;21049;-63
2021/08/09 03:30:39;;;;;;;14.10;11.80;;;;;;;23.60;100.00;99938.56;1747818;81;21017;-64
2021/08/09 03:33:05;;;;;;;16.77;12.73;;;;;;;23.88;100.00;99940.52;1741034;80;21701;-64
2021/08/09 03:35:33;;;;;;;13.63;12.00;;;;;;;24.40;100.00;99935.02;1732052;81;21050;-63
2021/08/09 03:37:59;;;;;;;13.93;12.03;;;;;;;25.10;100.00;99926.47;1727162;81;21049;-65
2021/08/09 03:40:25;;;;;;;15.97;12.80;;;;;;;25.94;100.00;99917.20;1726263;81;21580;-64
2021/08/09 03:42:53;;;;;;;16.53;12.30;;;;;;;26.85;100.00;99911.23;1733555;81;21111;-63
2021/08/09 03:45:21;;;;;;;14.58;11.20;;;;;;;27.70;100.00;99904.80;1726579;81;21729;-64
2021/08/09 03:47:48;;;;;;;14.05;11.75;;;;;;;28.52;100.00;99898.66;1727680;80;20982;-63
2021/08/09 03:50:15;;;;;;;15.25;11.68;;;;;;;29.17;100.00;99894.36;1724377;82;21038;-64
2021/08/09 03:52:52;;;;;;;17.65;12.18;;;;;;;29.62;100.00;99890.80;1721173;81;20987;-61
2021/08/09 03:55:19;;;;;;;13.25;11.05;;;;;;;30.21;100.00;99892.30;1752138;81;22544;-62
2021/08/09 03:57:46;;;;;;;17.05;12.18;;;;;;;30.67;100.00;99894.66;1749137;79;21063;-63
2021/08/09 04:00:13;;;;;;;18.65;11.83;;;;;;;31.23;100.00;99889.84;1735967;80;21068;-63
2021/08/09 04:02:43;;;;;;;15.88;13.72;;;;;;;31.79;100.00;99896.23;1776637;79;20995;-63
2021/08/09 04:05:13;;;;;;;14.55;12.45;;;;;;;32.26;100.00;99896.41;1731210;81;21077;-64
2021/08/09 04:07:40;;;;;;;12.82;11.50;;;;;;;32.65;100.00;99894.37;1733109;80;20975;-63
2021/08/09 04:10:08;;;;;;;12.95;11.33;;;;;;;33.11;100.00;99895.52;1707416;82;21144;-64
2021/08/09 04:12:35;;;;;;;15.05;11.08;;;;;;;33.49;100.00;99896.96;1735031;80;20933;-62
2021/08/09 04:15:06;;;;;;;12.05;10.72;;;;;;;33.84;100.00;99895.19;1705530;82;21299;-64
2021/08/09 04:17:34;;;;;;;14.20;11.53;;;;;;;34.26;95.20;99893.33;1728299;81;20907;-63
2021/08/09 04:20:01;;;;;;;15.43;10.43;;;;;;;34.55;88.09;99900.20;1696939;82;21135;-64
2021/08/09 04:22:28;;;;;;;15.32;11.20;;;;;;;34.88;81.98;99896.81;1754595;80;22782;-64
2021/08/09 04:24:54;;;;;;;14.55;11.05;;;;;;;35.21;77.10;99895.78;1756307;80;21570;-64
2021/08/09 04:27:21;;;;;;;15.48;10.13;;;;;;;35.56;72.47;99895.67;1727537;81;21061;-65
2021/08/09 04:29:48;;;;;;;14.55;10.20;;;;;;;35.90;68.45;99898.58;1779704;79;21075;-64
2021/08/09 04:32:16;;;;;;;12.40;9.80;;;;;;;36.28;62.78;99892.80;1791511;80;21525;-61
2021/08/09 04:34:43;;;;;;;14.43;10.48;;;;;;;36.55;60.14;99897.66;1767472;80;21205;-63
2021/08/09 04:37:10;;;;;;;15.72;9.98;;;;;;;36.83;56.60;99893.20;1754625;80;20933;-64
2021/08/09 04:39:39;;;;;;;15.75;11.43;;;;;;;37.21;53.82;99896.19;1748640;80;20923;-63
2021/08/09 04:42:06;;;;;;;13.08;11.18;;;;;;;37.56;52.33;99894.23;1725890;81;21049;-65
2021/08/09 04:44:33;;;;;;;14.50;10.53;;;;;;;37.85;49.42;99893.33;1740380;80;22140;-62
2021/08/09 04:47:00;;;;;;;16.52;10.45;;;;;;;38.01;47.91;99901.84;1749539;80;21114;-64
2021/08/09 04:49:29;;;;;;;11.63;9.53;;;;;;;38.15;47.54;99908.17;1756330;81;21569;-66
2021/08/09 04:51:56;;;;;;;11.80;10.45;;;;;;;38.47;46.13;99913.64;1757837;81;20954;-63
2021/08/09 04:54:22;;;;;;;11.65;10.13;;;;;;;38.74;44.32;99909.50;1752095;80;21058;-61
2021/08/09 04:56:50;;;;;;;14.33;10.60;;;;;;;39.09;43.30;99909.45;1747911;80;20993;-62
2021/08/09 04:59:17;;;;;;;18.27;10.55;;;;;;;39.46;41.87;99906.47;1749182;80;21117;-63
2021/08/09 05:01:45;;;;;;;15.32;11.93;;;;;;;39.66;41.61;99906.87;1735755;81;20899;-62
2021/08/09 05:04:12;;;;;;;14.20;10.58;;;;;;;40.00;40.71;99903.78;1737433;81;20979;-63
2021/08/09 05:06:41;;;;;;;13.27;10.57;;;;;;;40.31;39.48;99903.56;1759008;81;20970;-61
2021/08/09 05:09:08;;;;;;;14.35;9.88;;;;;;;40.51;38.29;99907.42;1755848;81;21080;-63
2021/08/09 05:11:34;;;;;;;12.10;10.90;;;;;;;40.78;37.62;99898.19;1759986;81;21945;-62
2021/08/09 05:14:03;;;;;;;13.38;10.80;;;;;;;41.04;36.52;99896.92;1758952;80;21037;-62
2021/08/09 05:16:34;;;;;;;11.15;10.03;;;;;;;41.26;35.91;99894.84;1759310;80;21526;-62
2021/08/09 05:19:03;;;;;;;14.85;11.03;;;;;;;41.46;35.54;99893.75;1757919;80;21319;-63
2021/08/09 05:21:31;;;;;;;15.40;11.65;;;;;;;41.62;34.61;99891.88;1760010;80;21555;-64
2021/08/09 05:24:04;;;;;;;13.30;11.03;;;;;;;41.57;34.51;99890.94;1757775;80;21160;-65
2021/08/09 05:26:31;;;;;;;15.32;12.07;;;;;;;41.51;34.81;99890.58;1754225;80;20962;-62
2021/08/09 05:28:58;;;;;;;16.45;11.25;;;;;;;41.59;34.38;99887.20;1757034;80;21125;-64
2021/08/09 05:31:27;;;;;;;14.25;11.53;;;;;;;41.69;34.06;99883.61;1759757;80;21013;-64
2021/08/09 05:33:56;;;;;;;12.95;11.53;;;;;;;41.79;33.78;99884.11;1756722;80;20946;-65
2021/08/09 05:36:22;;;;;;;15.90;12.58;;;;;;;41.89;33.51;99876.23;1759380;80;21180;-64
2021/08/09 05:38:50;;;;;;;21.35;13.05;;;;;;;42.01;33.35;99886.06;1759704;80;21089;-62
2021/08/09 05:41:17;;;;;;;16.70;12.07;;;;;;;42.19;33.28;99883.16;1754073;80;20864;-65
2021/08/09 05:43:44;;;;;;;14.05;10.88;;;;;;;42.34;32.73;99886.55;1751869;80;20974;-64
2021/08/09 05:46:11;;;;;;;11.75;10.05;;;;;;;42.29;33.22;99887.02;1751558;80;21590;-63
2021/08/09 05:48:41;;;;;;;11.65;10.45;;;;;;;42.35;32.46;99890.06;1749582;80;21158;-65
2021/08/09 05:51:07;;;;;;;13.60;10.25;;;;;;;42.30;32.10;99889.16;1755307;80;21033;-63
2021/08/09 05:53:35;;;;;;;10.13;9.15;;;;;;;42.11;32.42;99891.27;1753677;80;21065;-64
2021/08/09 05:56:03;;;;;;;10.48;9.20;;;;;;;42.15;32.45;99894.75;1753479;80;21027;-64
2021/08/09 05:58:31;;;;;;;;;;;;;;;42.26;32.28;99891.33;1754625;80;21059;-64
2021/08/09 06:00:59;;;;;;;9.85;8.95;;;;;;;42.30;32.20;99894.63;1752039;80;21111;-65
2021/08/09 06:03:26;;;;;;;15.93;9.90;;;;;;;42.41;31.90;99893.92;1752919;80;20983;-64
2021/08/09 06:05:57;;;;;;;11.00;9.10;;;;;;;42.53;31.56;99897.49;1714576;81;21580;-64
2021/08/09 06:08:26;;;;;;;9.50;8.60;;;;;;;42.66;31.25;99891.70;1759297;80;21020;-65
2021/08/09 06:10:53;;;;;;;9.80;8.80;;;;;;;42.65;31.28;99898.92;1729176;81;21034;-65
2021/08/09 06:13:20;;;;;;;12.95;9.70;;;;;;;42.77;31.17;99891.55;1756291;81;21135;-64
2021/08/09 06:15:49;;;;;;;10.55;8.98;;;;;;;42.79;30.98;99888.41;1752337;80;20990;-65
2021/08/09 06:18:15;;;;;;;10.32;8.75;;;;;;;42.67;31.15;99877.40;1757132;80;20978;-64
2021/08/09 06:20:42;;;;;;;11.45;9.55;;;;;;;42.68;31.14;99875.61;1751113;80;20962;-66
2021/08/09 06:23:12;;;;;;;10.48;9.38;;;;;;;42.81;31.22;99873.68;1756437;81;20987;-65
2021/08/09 06:25:41;;;;;;;11.90;9.18;;;;;;;42.90;30.79;99875.34;1752175;80;21154;-63
2021/08/09 06:28:08;;;;;;;13.28;9.53;;;;;;;42.85;30.86;99874.41;1725223;82;20896;-63
2021/08/09 06:30:35;;;;;;;11.57;9.05;;;;;;;42.81;30.37;99877.22;1751757;80;20991;-62
2021/08/09 06:33:02;;;;;;;10.28;9.10;;;;;;;42.49;30.96;99872.09;1753064;81;21029;-63
2021/08/09 06:35:30;;;;;;;12.03;8.15;;;;;;;42.13;31.17;99875.22;1725287;81;22488;-63
2021/08/09 06:37:58;;;;;;;11.43;7.83;;;;;;;41.87;31.80;99871.77;1745380;80;22036;-63
2021/08/09 06:40:25;;;;;;;9.33;6.83;;;;;;;41.71;31.44;99873.05;1751491;80;20921;-63
2021/08/09 06:42:51;;;;;;;10.28;7.22;;;;;;;41.64;30.08;99879.95;1749896;80;21014;-63
2021/08/09 06:45:21;;;;;;;9.70;8.08;;;;;;;41.55;31.33;99877.64;1749344;80;21008;-63
2021/08/09 06:47:47;;;;;;;11.53;7.80;;;;;;;41.32;31.45;99883.65;1750483;80;21150;-63
2021/08/09 06:50:14;;;;;;;11.60;7.87;;;;;;;41.03;31.97;99880.89;1750885;80;21134;-63
2021/08/09 06:52:40;;;;;;;8.33;6.60;;;;;;;40.70;32.23;99880.27;1747388;80;21602;-64
2021/08/09 06:55:08;;;;;;;10.53;6.70;;;;;;;40.50;32.25;99877.75;1751455;80;21543;-66
2021/08/09 06:57:35;;;;;;;9.55;6.58;;;;;;;40.54;31.22;99879.91;1727405;81;21026;-66
2021/08/09 07:00:04;;;;;;;10.75;6.90;;;;;;;40.66;31.32;99876.00;1753930;80;21085;-66
2021/08/09 07:02:31;;;;;;;11.57;7.97;;;;;;;40.86;31.42;99870.23;1746919;80;22054;-65
2021/08/09 07:04:59;;;;;;;11.63;8.25;;;;;;;41.08;31.25;99877.17;1739202;82;21455;-61
2021/08/09 07:07:26;;;;;;;8.48;7.62;;;;;;;41.38;31.32;99874.45;1738739;82;21042;-61
2021/08/09 07:09:53;;;;;;;9.43;7.15;;;;;;;41.69;30.57;99878.73;1739398;82;22815;-65
2021/08/09 07:12:20;;;;;;;11.45;7.65;;;;;;;41.61;30.57;99873.91;1740576;81;21577;-65
2021/08/09 07:14:47;;;;;;;24.05;8.90;;;;;;;41.58;30.60;99869.23;1739029;81;22132;-63
2021/08/09 07:17:14;;;;;;;13.43;7.12;;;;;;;41.64;30.60;99867.63;1734510;82;21493;-63
2021/08/09 07:19:42;;;;;;;12.68;8.00;;;;;;;41.67;30.76;99872.27;1732786;82;21079;-64
2021/08/09 07:22:11;;;;;;;10.13;7.00;;;;;;;41.70;30.37;99872.06;1731320;82;22259;-64
2021/08/09 07:24:38;;;;;;;8.28;6.10;;;;;;;41.61;30.91;99875.27;1736845;82;21382;-63
2021/08/09 07:27:04;;;;;;;11.75;7.17;;;;;;;41.72;30.57;99873.22;1738123;81;21134;-61
2021/08/09 07:29:31;;;;;;;9.10;6.62;;;;;;;41.89;30.43;99875.63;1738183;81;21604;-65
2021/08/09 07:31:58;;;;;;;10.88;6.97;;;;;;;41.93;30.62;99879.11;1737987;81;21051;-63
2021/08/09 07:34:25;;;;;;;11.78;6.87;;;;;;;41.85;30.67;99875.48;1740879;81;21119;-63
2021/08/09 07:36:52;;;;;;;10.25;6.60;;;;;;;41.72;30.28;99877.92;1736299;81;21105;-63
2021/08/09 07:39:18;;;;;;;8.65;5.53;;;;;;;41.61;29.82;99879.37;1732066;81;21148;-63
2021/08/09 07:41:45;;;;;;;11.28;5.87;;;;;;;41.62;29.85;99881.52;1732619;81;21066;-62
2021/08/09 07:44:12;;;;;;;12.73;5.60;;;;;;;41.79;30.09;99879.23;1737551;81;20994;-63
2021/08/09 07:46:39;;;;;;;9.93;5.92;;;;;;;42.20;30.23;99881.19;1737332;81;20948;-63
2021/08/09 07:49:07;;;;;;;11.08;6.17;;;;;;;42.67;29.37;99883.66;1732185;81;21426;-60
2021/08/09 07:51:34;;;;;;;8.83;5.90;;;;;;;43.16;28.89;99882.05;1736729;81;21417;-62
2021/08/09 07:54:00;;;;;;;10.88;7.20;;;;;;;43.60;28.20;99879.61;1733417;82;21628;-62
2021/08/09 07:56:27;;;;;;;8.78;6.62;;;;;;;43.91;27.71;99885.79;1734849;82;21545;-62
2021/08/09 07:58:54;;;;;;;11.00;7.10;;;;;;;44.04;26.77;99887.92;1735911;81;20955;-61
2021/08/09 08:01:21;;;;;;;14.28;7.55;;;;;;;43.93;27.01;99886.13;1740088;80;20998;-62
2021/08/09 08:03:47;;;;;;;12.20;6.45;;;;;;;43.93;27.28;99886.13;1745974;80;21123;-62
2021/08/09 08:06:14;;;;;;;11.35;6.70;;;;;;;43.92;27.44;99890.08;1751573;80;21097;-63
2021/08/09 08:08:42;;;;;;;9.85;8.05;;;;;;;43.47;27.64;99891.02;1744942;80;21058;-62
2021/08/09 08:11:10;;;;;;;11.12;7.58;;;;;;;42.98;28.88;99898.72;1748129;80;21567;-62
2021/08/09 08:13:39;;;;;;;9.40;6.05;;;;;;;42.61;29.00;99899.56;1749150;80;21042;-61
2021/08/09 08:16:08;;;;;;;6.95;5.22;;;;;;;42.24;28.77;99906.58;1721768;81;20950;-62
2021/08/09 08:18:36;;;;;;;6.62;5.12;;;;;;;41.66;28.69;99906.30;1750745;80;20923;-61
2021/08/09 08:21:04;;;;;;;7.92;5.17;;;;;;;41.22;28.59;99904.23;1750875;80;21006;-62
2021/08/09 08:23:31;;;;;;;8.48;4.53;;;;;;;40.58;29.79;99907.44;1750269;80;20994;-60
2021/08/09 08:25:58;;;;;;;9.65;4.70;;;;;;;40.40;30.26;99906.67;1748238;81;20919;-62
2021/08/09 08:28:25;;;;;;;6.08;4.42;;;;;;;40.17;30.23;99904.38;1752912;79;21107;-63
2021/08/09 08:30:53;;;;;;;7.90;4.20;;;;;;;39.81;30.63;99911.19;1752243;80;21128;-63
2021/08/09 08:33:19;;;;;;;9.73;4.53;;;;;;;39.59;30.49;99908.22;1750627;80;21011;-60
2021/08/09 08:35:46;;;;;;;6.53;4.40;;;;;;;39.55;30.88;99913.70;1748688;80;21067;-61
2021/08/09 08:38:13;;;;;;;6.87;4.87;;;;;;;39.81;31.19;99906.31;1743122;80;21070;-64
2021/08/09 08:40:47;;;;;;;10.53;4.70;;;;;;;40.10;30.29;99905.73;1740626;80;49435;-64
2021/08/09 08:43:24;;;;;;;7.22;5.17;;;;;;;40.17;30.55;99907.12;1720737;81;21053;-65
2021/08/09 08:45:59;;;;;;;7.15;5.15;;;;;;;40.33;30.87;99899.86;1739833;80;21151;-63
2021/08/09 08:48:27;;;;;;;8.60;5.97;;;;;;;40.88;30.66;99899.89;1746785;80;20980;-64
2021/08/09 08:50:54;;;;;;;8.55;5.75;;;;;;;41.30;29.76;99896.97;1742422;80;21506;-65
2021/08/09 08:53:21;;;;;;;9.23;5.75;;;;;;;41.51;29.67;99897.42;1745358;80;21147;-62
2021/08/09 08:55:48;;;;;;;8.43;6.00;;;;;;;41.76;28.75;99896.46;1737365;80;21571;-64
2021/08/09 08:58:14;;;;;;;8.43;5.92;;;;;;;41.96;28.84;99896.70;1745117;80;21918;-63
2021/08/09 09:00:42;;;;;;;7.30;5.55;;;;;;;42.12;28.32;99894.78;1742457;80;21458;-64
2021/08/09 09:03:22;;;;;;;22.17;7.05;;;;;;;42.14;28.32;99900.64;1745184;80;21029;-64
2021/08/09 09:06:08;;;;;;;6.53;5.83;;;;;;;42.07;28.33;99904.22;1745808;80;21935;-64
2021/08/09 09:08:47;;;;;;;10.43;5.72;;;;;;;41.91;28.06;99899.28;1750289;80;20983;-62
2021/08/09 09:11:29;;;;;;;12.68;6.00;;;;;;;41.70;28.46;99896.10;1749718;80;21466;-62
2021/08/09 09:14:02;;;;;;;11.93;6.03;;;;;;;41.70;28.94;99898.06;1749449;80;21071;-62
2021/08/09 09:16:46;;;;;;;9.15;5.65;;;;;;;41.66;29.05;99902.79;1748445;80;20947;-62
2021/08/09 09:19:38;;;;;;;9.58;4.75;;;;;;;41.54;29.25;99905.42;1749828;80;21520;-62
2021/08/09 09:22:09;;;;;;;8.85;5.70;;;;;;;41.34;29.79;99907.88;1750119;80;20908;-62
2021/08/09 09:24:36;;;;;;;8.13;4.37;;;;;;;41.20;30.05;99907.38;1745367;80;20987;-66
2021/08/09 09:27:08;;;;;;;9.98;5.08;;;;;;;41.36;29.90;99910.20;1748703;81;21033;-64
2021/08/09 09:29:39;;;;;;;9.28;5.47;;;;;;;41.59;29.39;99906.36;1744257;80;21015;-65
2021/08/09 09:32:18;;;;;;;8.28;4.58;;;;;;;41.67;29.63;99906.48;1749933;80;21143;-63
2021/08/09 09:34:56;;;;;;;9.73;5.30;;;;;;;41.74;29.40;99899.59;1751581;80;22351;-64
2021/08/09 09:37:29;;;;;;;6.72;4.87;;;;;;;41.68;28.67;99907.28;1749431;80;21087;-63
2021/08/09 09:40:07;;;;;;;6.78;4.60;;;;;;;41.68;28.84;99902.59;1748909;80;21030;-62
2021/08/09 09:42:36;;;;;;;14.05;6.83;;;;;;;41.57;29.20;99900.52;1750191;80;21524;-64
2021/08/09 09:45:27;;;;;;;6.12;4.50;;;;;;;41.59;29.41;99898.14;1747320;80;21147;-62
2021/08/09 09:48:06;;;;;;;6.15;4.83;;;;;;;41.60;28.77;99901.09;1745372;81;21046;-62
2021/08/09 09:50:35;;;;;;;7.15;4.80;;;;;;;41.52;28.84;99894.09;1749847;80;20998;-63
2021/08/09 09:53:20;;;;;;;10.67;4.90;;;;;;;41.40;29.09;99894.55;1750653;80;21591;-63
2021/08/09 09:55:51;;;;;;;5.92;4.45;;;;;;;41.12;29.47;99905.86;1746414;80;21196;-62
2021/08/09 09:58:17;;;;;;;9.03;5.00;;;;;;;40.65;30.13;99909.37;1750320;80;21084;-61
2021/08/09 10:00:44;;;;;;;10.93;4.60;;;;;;;40.26;30.52;99906.70;1751891;80;21588;-62
2021/08/09 10:03:11;;;;;;;10.48;4.67;;;;;;;39.84;31.75;99906.91;1750251;80;21022;-60
2021/08/09 10:05:41;;;;;;;6.60;5.42;;;;;;;39.51;31.70;99906.66;1724333;83;21022;-64
2021/08/09 10:08:15;;;;;;;7.47;5.00;;;;;;;38.99;32.64;99909.64;1757630;80;21002;-63
2021/08/09 10:10:48;;;;;;;9.63;5.58;;;;;;;38.43;33.46;99917.12;1755654;80;21801;-62
2021/08/09 10:13:20;;;;;;;8.75;4.97;;;;;;;38.20;35.21;99915.19;1759641;80;20983;-61
2021/08/09 10:15:58;;;;;;;7.75;5.70;;;;;;;38.15;35.97;99918.25;1724000;81;21316;-63
2021/08/09 10:18:29;;;;;;;8.15;5.72;;;;;;;38.09;35.55;99918.42;1749619;80;21015;-62
2021/08/09 10:20:57;;;;;;;10.53;5.72;;;;;;;37.73;36.09;99922.16;1749311;80;20991;-61
2021/08/09 10:23:45;;;;;;;9.18;6.75;;;;;;;37.61;37.14;99922.44;1760853;80;21220;-62
2021/08/09 10:26:23;;;;;;;8.50;6.60;;;;;;;37.67;37.24;99920.95;1757317;80;21001;-64
2021/08/09 10:29:00;;;;;;;12.88;6.85;;;;;;;38.06;37.08;99917.80;1733982;80;20986;-63
2021/08/09 10:31:40;;;;;;;9.50;5.72;;;;;;;38.44;35.92;99911.87;1752919;80;21015;-64
2021/08/09 10:34:12;;;;;;;10.85;5.85;;;;;;;38.76;35.07;99909.91;1763766;80;21069;-61
2021/08/09 10:37:16;;;;;;;7.75;6.47;;;;;;;39.16;33.79;99908.13;1750774;80;21156;-63
2021/08/09 10:39:59;;;;;;;8.18;6.03;;;;;;;39.50;32.96;99903.74;1754825;80;20971;-61
2021/08/09 10:42:40;;;;;;;10.63;6.37;;;;;;;40.03;31.29;99906.51;1756445;80;21048;-63
2021/08/09 10:45:17;;;;;;;9.78;5.78;;;;;;;40.34;30.93;99912.34;1719233;81;21738;-62
2021/08/09 10:47:49;;;;;;;11.78;5.50;;;;;;;40.55;30.75;99912.88;1747904;80;21756;-60
2021/08/09 10:50:40;;;;;;;11.97;5.37;;;;;;;40.78;30.55;99909.12;1718026;82;21848;-61
2021/08/09 10:53:31;;;;;;;9.28;5.78;;;;;;;41.20;29.28;99904.64;1719645;83;21109;-60
2021/08/09 10:56:00;;;;;;;14.15;6.08;;;;;;;41.47;28.46;99906.84;1751658;80;21588;-62
2021/08/09 10:58:52;;;;;;;7.28;4.62;;;;;;;41.49;29.10;99897.06;1745972;80;21094;-62
2021/08/09 11:01:22;;;;;;;9.93;5.30;;;;;;;41.69;28.38;99897.30;1756419;80;21003;-64
2021/08/09 11:04:08;;;;;;;7.03;4.58;;;;;;;41.78;27.46;99903.66;1752049;80;21129;-63
2021/08/09 11:06:41;;;;;;;7.28;5.37;;;;;;;41.96;27.61;99906.28;1756794;80;21058;-62
2021/08/09 11:09:35;;;;;;;6.25;5.03;;;;;;;42.15;26.98;99907.07;1757689;80;21094;-64
2021/08/09 11:12:21;;;;;;;7.20;4.97;;;;;;;42.02;27.28;99908.18;1749458;80;21060;-63
2021/08/09 11:15:10;;;;;;;12.00;6.10;;;;;;;41.77;27.27;99906.99;1762379;80;21129;-60
2021/08/09 11:17:44;;;;;;;8.45;5.20;;;;;;;41.51;27.39;99909.73;1765874;80;20991;-63
2021/08/09 11:20:21;;;;;;;10.90;4.55;;;;;;;41.44;27.78;99904.91;1770255;80;20994;-64
2021/08/09 11:23:12;;;;;;;8.48;5.55;;;;;;;41.54;27.51;99906.80;1760295;80;21545;-65
2021/08/09 11:25:48;;;;;;;5.08;4.42;;;;;;;41.54;27.08;99908.16;1761762;79;21085;-63
2021/08/09 11:28:23;;;;;;;5.97;5.20;;;;;;;41.62;26.84;99905.55;1760345;80;20990;-64
2021/08/09 11:31:03;;;;;;;7.72;5.12;;;;;;;41.54;26.75;99902.69;1767328;80;21125;-65
2021/08/09 11:33:40;;;;;;;6.97;5.30;;;;;;;41.50;27.10;99900.57;1762258;80;20991;-64
2021/08/09 11:36:14;;;;;;;6.78;4.60;;;;;;;41.62;27.08;99900.08;1762218;80;21567;-61